createdAt,value
2022-11-15T00:00:59.994Z,36.58
2022-11-15T00:03:45.469Z,37.55
2022-11-15T00:06:30.391Z,39.17
2022-11-15T00:09:15.317Z,38.88
2022-11-15T00:12:00.091Z,36.58
2022-11-15T00:14:45.074Z,39.22
2022-11-15T00:17:30.599Z,38.13
2022-11-15T00:20:15.801Z,38.35
2022-11-15T00:23:00.997Z,39.20
2022-11-15T00:25:45.999Z,38.55
2022-11-15T00:28:30.882Z,36.72
2022-11-15T00:31:15.827Z,36.90
2022-11-15T00:34:01.105Z,36.80
2022-11-15T00:36:46.047Z,38.85
2022-11-15T00:39:31.289Z,39.33
2022-11-15T00:42:16.191Z,38.90
2022-11-15T00:45:01.169Z,40.20
2022-11-15T00:47:47.194Z,38.33
2022-11-15T00:50:32.342Z,37.55
2022-11-15T00:53:17.600Z,39.72
2022-11-15T00:56:02.490Z,40.15
2022-11-15T00:58:47.560Z,37.65
2022-11-15T01:01:32.594Z,39.85
2022-11-15T01:04:17.528Z,39.78
2022-11-15T01:07:02.575Z,40.28
2022-11-15T01:09:47.801Z,40.30
2022-11-15T01:12:36.363Z,38.22
2022-11-15T01:15:21.364Z,40.03
2022-11-15T01:18:06.410Z,38.05
2022-11-15T01:20:51.432Z,39.63
2022-11-15T01:23:36.427Z,41.05
2022-11-15T01:26:22.303Z,42.08
2022-11-15T01:29:07.476Z,41.42
2022-11-15T01:31:54.212Z,42.63
2022-11-15T01:34:39.517Z,40.22
2022-11-15T01:37:24.403Z,41.05
2022-11-15T01:40:10.009Z,42.97
2022-11-15T01:42:55.117Z,42.38
2022-11-15T01:45:40.017Z,43.85
2022-11-15T01:48:32.408Z,40.55
2022-11-15T01:51:20.166Z,42.25
2022-11-15T01:54:09.782Z,41.55
2022-11-15T01:57:02.474Z,42.08
2022-11-15T01:59:47.911Z,40.78
2022-11-15T02:02:35.125Z,39.83
2022-11-15T02:05:20.221Z,40.47
2022-11-15T02:08:05.820Z,41.80
2022-11-15T02:10:50.939Z,41.92
2022-11-15T02:13:36.990Z,39.30
2022-11-15T02:16:49.954Z,38.50
2022-11-15T02:19:34.795Z,38.85
2022-11-15T02:23:00.637Z,36.92
2022-11-15T02:26:03.550Z,38.90
2022-11-15T02:29:04.907Z,39.28
2022-11-15T02:32:08.770Z,39.97
2022-11-15T02:35:15.410Z,38.95
2022-11-15T02:38:08.942Z,36.42
2022-11-15T02:41:07.753Z,36.50
2022-11-15T02:44:04.486Z,36.25
2022-11-15T02:47:13.673Z,37.15
2022-11-15T02:50:03.271Z,37.40
2022-11-15T02:52:51.970Z,36.80
2022-11-15T02:55:46.194Z,36.67
2022-11-15T02:59:06.576Z,35.80
2022-11-15T03:02:19.138Z,37.42
2022-11-15T03:05:24.530Z,36.70
2022-11-15T03:08:12.085Z,34.03
2022-11-15T03:11:12.798Z,34.47
2022-11-15T03:14:19.976Z,37.22
2022-11-15T03:17:27.392Z,36.83
2022-11-15T03:20:16.814Z,36.25
2022-11-15T03:23:07.163Z,37.78
2022-11-15T03:25:54.423Z,37.55
2022-11-15T03:28:49.851Z,41.63
2022-11-15T03:31:51.111Z,43.38
2022-11-15T03:34:48.425Z,42.00
2022-11-15T03:37:47.096Z,42.00
2022-11-15T03:40:39.091Z,42.42
2022-11-15T03:43:44.152Z,41.85
2022-11-15T03:46:37.896Z,39.80
2022-11-15T03:49:31.892Z,40.33
2022-11-15T03:52:19.923Z,39.80
2022-11-15T03:55:08.470Z,39.03
2022-11-15T03:57:57.516Z,40.47
2022-11-15T04:00:42.512Z,39.35
2022-11-15T04:03:27.449Z,39.25
2022-11-15T04:06:12.585Z,38.72
2022-11-15T04:08:57.569Z,39.65
2022-11-15T04:11:42.667Z,39.80
2022-11-15T04:14:27.637Z,38.53
2022-11-15T04:17:12.613Z,40.47
2022-11-15T04:20:16.279Z,39.88
2022-11-15T04:23:22.912Z,37.50
2022-11-15T04:26:12.119Z,37.45
2022-11-15T04:29:15.685Z,40.03
2022-11-15T04:32:04.765Z,40.15
2022-11-15T04:34:50.062Z,38.45
2022-11-15T04:37:34.929Z,38.47
2022-11-15T04:40:19.921Z,38.35
2022-11-15T04:43:05.582Z,40.90
2022-11-15T04:45:50.575Z,37.55
2022-11-15T04:48:35.461Z,37.35
2022-11-15T04:51:20.696Z,36.80
2022-11-15T04:54:07.090Z,36.83
2022-11-15T04:56:52.009Z,38.88
2022-11-15T04:59:36.982Z,37.03
2022-11-15T05:02:21.768Z,37.92
2022-11-15T05:05:06.903Z,35.08
2022-11-15T05:07:52.143Z,35.60
2022-11-15T05:10:37.313Z,34.70
2022-11-15T05:13:22.263Z,34.67
2022-11-15T05:16:07.375Z,35.92
2022-11-15T05:18:54.427Z,35.15
2022-11-15T05:21:39.520Z,35.10
2022-11-15T05:24:24.680Z,34.92
2022-11-15T05:27:09.618Z,35.22
2022-11-15T05:29:54.516Z,32.92
2022-11-15T05:32:39.921Z,35.63
2022-11-15T05:35:37.841Z,33.60
2022-11-15T05:38:24.583Z,36.47
2022-11-15T05:41:09.850Z,35.08
2022-11-15T05:43:55.078Z,35.90
2022-11-15T05:46:41.998Z,33.72
2022-11-15T05:49:32.126Z,34.28
2022-11-15T05:52:21.275Z,35.97
2022-11-15T05:55:07.815Z,34.35
2022-11-15T05:57:52.726Z,34.90
2022-11-15T06:00:37.787Z,34.53
2022-11-15T06:03:22.898Z,34.85
2022-11-15T06:06:12.256Z,36.33
2022-11-15T06:09:00.053Z,33.08
2022-11-15T06:11:44.998Z,33.58
2022-11-15T06:14:30.769Z,32.47
2022-11-15T06:17:15.567Z,30.33
2022-11-15T06:20:00.543Z,31.23
2022-11-15T06:22:45.613Z,32.25
2022-11-15T06:25:31.960Z,32.03
2022-11-15T06:28:16.859Z,32.80
2022-11-15T06:31:07.221Z,31.00
2022-11-15T06:33:52.709Z,29.90
2022-11-15T06:36:38.036Z,31.08
2022-11-15T06:39:22.972Z,30.63
2022-11-15T06:42:09.333Z,32.53
2022-11-15T06:44:54.217Z,34.15
2022-11-15T06:47:47.518Z,32.20
2022-11-15T06:50:32.721Z,31.38
2022-11-15T06:53:17.543Z,32.78
2022-11-15T06:56:04.156Z,31.98
2022-11-15T06:58:49.306Z,33.92
2022-11-15T07:01:34.258Z,33.10
2022-11-15T07:04:19.699Z,34.45
2022-11-15T07:07:04.685Z,34.17
2022-11-15T07:09:49.586Z,35.10
2022-11-15T07:12:34.530Z,35.38
2022-11-15T07:15:21.384Z,35.50
2022-11-15T07:18:06.565Z,35.47
2022-11-15T07:20:51.330Z,36.03
2022-11-15T07:23:40.273Z,32.00
2022-11-15T07:26:25.218Z,34.10
2022-11-15T07:29:10.062Z,35.78
2022-11-15T07:31:55.280Z,34.60
2022-11-15T07:34:40.371Z,36.08
2022-11-15T07:37:25.335Z,35.47
2022-11-15T07:40:10.534Z,36.90
2022-11-15T07:43:03.672Z,36.47
2022-11-15T07:45:48.625Z,36.10
2022-11-15T07:48:43.429Z,35.85
2022-11-15T07:51:29.671Z,34.38
2022-11-15T07:54:14.407Z,34.53
2022-11-15T07:57:03.909Z,34.90
2022-11-15T07:59:51.679Z,34.10
2022-11-15T08:02:36.784Z,34.83
2022-11-15T08:05:22.069Z,34.92
2022-11-15T08:08:08.314Z,34.80
2022-11-15T08:10:53.315Z,31.23
2022-11-15T08:13:38.231Z,33.65
2022-11-15T08:16:23.073Z,33.47
2022-11-15T08:19:07.948Z,33.47
2022-11-15T08:21:52.921Z,34.50
2022-11-15T08:24:39.472Z,35.25
2022-11-15T08:27:24.834Z,33.28
2022-11-15T08:30:11.264Z,32.50
2022-11-15T08:33:02.407Z,34.22
2022-11-15T08:35:49.586Z,33.28
2022-11-15T08:38:34.798Z,33.22
2022-11-15T08:41:30.749Z,35.60
2022-11-15T08:44:16.179Z,33.55
2022-11-15T08:47:05.033Z,34.55
2022-11-15T08:49:50.449Z,34.53
2022-11-15T08:52:35.602Z,31.23
2022-11-15T08:55:24.407Z,33.85
2022-11-15T08:58:13.635Z,34.13
2022-11-15T09:01:02.847Z,31.42
2022-11-15T09:03:48.693Z,30.63
2022-11-15T09:06:43.225Z,28.77
2022-11-15T09:09:28.737Z,28.35
2022-11-15T09:12:13.883Z,29.15
2022-11-15T09:14:59.152Z,28.85
2022-11-15T09:17:44.482Z,27.45
2022-11-15T09:20:29.504Z,27.17
2022-11-15T09:23:14.284Z,26.75
2022-11-15T09:26:05.484Z,26.60
2022-11-15T09:28:51.056Z,27.20
2022-11-15T09:31:36.006Z,27.60
2022-11-15T09:34:21.968Z,27.83
2022-11-15T09:37:06.834Z,26.50
2022-11-15T09:39:51.832Z,25.70
2022-11-15T09:42:59.506Z,24.67
2022-11-15T09:46:07.529Z,26.67
2022-11-15T09:48:59.847Z,24.85
2022-11-15T09:51:47.614Z,26.95
2022-11-15T09:54:52.137Z,26.38
2022-11-15T09:57:19.545Z,25.75
2022-11-15T09:59:56.855Z,24.83
2022-11-15T10:02:43.864Z,24.50
2022-11-15T10:05:18.295Z,24.85
2022-11-15T10:07:58.533Z,25.42
2022-11-15T10:10:40.244Z,23.93
2022-11-15T10:13:17.647Z,23.58
2022-11-15T10:15:46.571Z,23.92
2022-11-15T10:18:23.345Z,25.15
2022-11-15T10:20:56.170Z,23.58
2022-11-15T10:23:24.182Z,24.60
2022-11-15T10:26:06.650Z,24.13
2022-11-15T10:28:33.934Z,22.80
2022-11-15T10:31:02.082Z,22.73
2022-11-15T10:33:39.574Z,24.50
2022-11-15T10:36:14.483Z,21.98
2022-11-15T10:38:53.814Z,22.15
2022-11-15T10:41:32.388Z,22.67
2022-11-15T10:44:07.877Z,21.88
2022-11-15T10:46:51.936Z,21.05
2022-11-15T10:49:25.184Z,20.63
2022-11-15T10:52:13.067Z,21.13
2022-11-15T10:54:47.324Z,20.08
2022-11-15T10:57:23.584Z,20.88
2022-11-15T10:59:53.388Z,20.65
2022-11-15T11:02:33.600Z,19.00
2022-11-15T11:05:01.032Z,18.37
2022-11-15T11:07:31.194Z,19.67
2022-11-15T11:10:44.096Z,18.13
2022-11-15T11:13:24.566Z,18.27
2022-11-15T11:16:06.535Z,17.83
2022-11-15T11:19:02.312Z,17.50
2022-11-15T11:21:44.633Z,17.60
2022-11-15T11:24:30.954Z,18.42
2022-11-15T11:27:09.034Z,16.40
2022-11-15T11:29:57.019Z,16.25
2022-11-15T11:32:58.641Z,16.27
2022-11-15T11:35:33.179Z,16.95
2022-11-15T11:38:25.393Z,16.08
2022-11-15T11:41:16.088Z,16.25
2022-11-15T11:44:03.565Z,15.73
2022-11-15T11:47:09.998Z,13.88
2022-11-15T11:49:45.709Z,15.00
2022-11-15T11:52:27.738Z,14.77
2022-11-15T11:55:11.847Z,14.43
2022-11-15T11:58:12.204Z,13.73
2022-11-15T12:00:47.506Z,14.00
2022-11-15T12:03:33.173Z,14.90
2022-11-15T12:06:11.286Z,14.13
2022-11-15T12:09:15.337Z,13.68
2022-11-15T12:12:09.482Z,13.25
2022-11-15T12:14:46.687Z,12.50
2022-11-15T12:17:14.003Z,11.85
2022-11-15T12:19:41.374Z,13.35
2022-11-15T12:22:17.584Z,14.10
2022-11-15T12:24:55.986Z,13.13
2022-11-15T12:27:41.469Z,12.98
2022-11-15T12:30:20.519Z,13.02
2022-11-15T12:32:59.817Z,12.68
2022-11-15T12:35:33.989Z,12.20
2022-11-15T12:38:00.577Z,11.40
2022-11-15T12:40:31.020Z,11.48
2022-11-15T12:43:10.712Z,11.80
2022-11-15T12:45:46.989Z,11.48
2022-11-15T12:48:16.173Z,11.70
2022-11-15T12:50:56.937Z,12.70
2022-11-15T12:53:34.557Z,12.20
2022-11-15T12:56:12.954Z,14.10
2022-11-15T12:58:49.802Z,13.25
2022-11-15T13:01:31.956Z,12.55
2022-11-15T13:04:20.194Z,12.95
2022-11-15T13:06:52.614Z,13.18
2022-11-15T13:09:37.200Z,12.35
2022-11-15T13:12:05.544Z,12.45
2022-11-15T13:14:37.825Z,12.48
2022-11-15T13:17:22.542Z,12.23
2022-11-15T13:19:59.722Z,13.27
2022-11-15T13:22:46.247Z,12.52
2022-11-15T13:25:46.208Z,13.15
2022-11-15T13:28:15.211Z,12.43
2022-11-15T13:30:51.056Z,11.93
2022-11-15T13:33:33.054Z,11.95
2022-11-15T13:36:06.676Z,12.07
2022-11-15T13:38:38.638Z,12.77
2022-11-15T13:41:35.558Z,13.10
2022-11-15T13:44:03.674Z,12.25
2022-11-15T13:46:34.811Z,11.98
2022-11-15T13:49:04.063Z,12.30
2022-11-15T13:51:49.431Z,11.93
2022-11-15T13:54:26.232Z,10.57
2022-11-15T13:56:56.777Z,10.60
2022-11-15T13:59:28.383Z,11.25
2022-11-15T14:01:57.565Z,11.00
2022-11-15T14:04:27.383Z,10.82
2022-11-15T14:06:58.343Z,11.38
2022-11-15T14:12:00.518Z,10.40
2022-11-15T14:14:30.709Z,11.40
2022-11-15T14:17:00.169Z,10.93
2022-11-15T14:19:26.604Z,11.52
2022-11-15T14:22:16.436Z,12.10
2022-11-15T14:24:48.505Z,11.95
2022-11-15T14:27:21.164Z,12.15
2022-11-15T14:29:48.752Z,11.40
2022-11-15T14:32:24.016Z,11.85
2022-11-15T14:34:59.152Z,10.95
2022-11-15T14:37:28.249Z,10.40
2022-11-15T14:39:55.686Z,11.70
2022-11-15T14:42:24.054Z,11.60
2022-11-15T14:44:51.049Z,11.30
2022-11-15T14:47:17.885Z,10.90
2022-11-15T14:49:44.911Z,10.43
2022-11-15T14:52:32.627Z,11.18
2022-11-15T14:55:00.278Z,10.32
2022-11-15T14:57:26.754Z,10.82
2022-11-15T14:59:53.295Z,10.80
2022-11-15T15:02:22.941Z,11.52
2022-11-15T15:04:50.110Z,11.40
2022-11-15T15:07:17.286Z,11.55
2022-11-15T15:09:44.932Z,11.85
2022-11-15T15:12:22.975Z,12.18
2022-11-15T15:14:51.079Z,11.38
2022-11-15T15:17:18.417Z,12.95
2022-11-15T15:19:44.835Z,12.57
2022-11-15T15:22:17.384Z,12.13
2022-11-15T15:24:45.350Z,12.32
2022-11-15T15:27:12.849Z,12.55
2022-11-15T15:29:39.634Z,12.82
2022-11-15T15:32:06.653Z,13.50
2022-11-15T15:34:33.511Z,13.80
2022-11-15T15:37:23.807Z,12.05
2022-11-15T15:39:57.341Z,13.83
2022-11-15T15:42:24.296Z,14.05
2022-11-15T15:44:51.705Z,14.00
2022-11-15T15:47:21.067Z,14.27
2022-11-15T15:49:48.520Z,15.95
2022-11-15T15:52:14.927Z,16.88
2022-11-15T15:54:41.404Z,16.55
2022-11-15T15:57:09.345Z,16.98
2022-11-15T15:59:35.740Z,17.25
2022-11-15T16:02:02.149Z,17.40
2022-11-15T16:04:29.479Z,16.88
2022-11-15T16:07:00.781Z,16.38
2022-11-15T16:09:46.541Z,15.68
2022-11-15T16:12:12.944Z,16.92
2022-11-15T16:14:39.338Z,16.55
2022-11-15T16:17:06.149Z,18.08
2022-11-15T16:19:32.542Z,16.23
2022-11-15T16:21:58.937Z,16.77
2022-11-15T16:24:25.343Z,16.70
2022-11-15T16:26:52.739Z,16.25
2022-11-15T16:29:19.118Z,18.02
2022-11-15T16:31:45.576Z,17.23
2022-11-15T16:34:11.988Z,17.95
2022-11-15T16:36:38.492Z,17.65
2022-11-15T16:39:05.066Z,17.90
2022-11-15T16:41:31.786Z,17.30
2022-11-15T16:43:58.233Z,17.70
2022-11-15T16:46:26.652Z,17.65
2022-11-15T16:48:56.474Z,18.88
2022-11-15T16:51:23.548Z,17.17
2022-11-15T16:53:50.125Z,17.10
2022-11-15T16:56:29.816Z,17.70
2022-11-15T16:58:58.571Z,17.88
2022-11-15T17:01:30.858Z,17.35
2022-11-15T17:03:57.598Z,17.65
2022-11-15T17:06:26.502Z,17.80
2022-11-15T17:08:53.042Z,18.70
2022-11-15T17:11:22.108Z,18.58
2022-11-15T17:13:49.471Z,19.17
2022-11-15T17:16:18.372Z,18.52
2022-11-15T17:18:47.558Z,17.30
2022-11-15T17:21:17.104Z,17.92
2022-11-15T17:23:43.919Z,19.65
2022-11-15T17:26:29.639Z,20.40
2022-11-15T17:28:57.258Z,18.95
2022-11-15T17:31:23.675Z,20.95
2022-11-15T17:33:50.130Z,19.55
2022-11-15T17:36:16.552Z,21.38
2022-11-15T17:38:43.828Z,22.00
2022-11-15T17:41:13.598Z,21.95
2022-11-15T17:43:40.469Z,21.38
2022-11-15T17:46:09.001Z,20.67
2022-11-15T17:48:35.627Z,20.35
2022-11-15T17:51:07.416Z,20.20
2022-11-15T17:53:37.894Z,20.75
2022-11-15T17:56:09.204Z,21.45
2022-11-15T17:58:35.914Z,20.85
2022-11-15T18:01:06.863Z,23.35
2022-11-15T18:06:00.979Z,25.92
2022-11-15T18:08:27.389Z,24.35
2022-11-15T18:11:05.304Z,24.70
2022-11-15T18:13:32.115Z,26.40
2022-11-15T18:16:02.484Z,27.70
2022-11-15T18:18:30.157Z,28.13
2022-11-15T18:21:11.451Z,28.92
2022-11-15T18:23:38.262Z,29.80
2022-11-15T18:26:06.525Z,30.60
2022-11-15T18:28:35.794Z,30.17
2022-11-15T18:31:04.340Z,33.28
2022-11-15T18:33:35.318Z,34.00
2022-11-15T18:36:07.254Z,33.75
2022-11-15T18:38:34.108Z,34.55
2022-11-15T18:41:09.120Z,34.45
2022-11-15T18:43:35.997Z,35.50
2022-11-15T18:46:11.118Z,34.83
2022-11-15T18:48:39.908Z,36.33
2022-11-15T18:51:14.448Z,38.65
2022-11-15T18:53:42.369Z,38.03
2022-11-15T18:56:11.033Z,40.10
2022-11-15T18:58:45.887Z,41.53
2022-11-15T19:01:12.281Z,42.25
2022-11-15T19:03:40.438Z,41.63
2022-11-15T19:06:09.473Z,42.95
2022-11-15T19:08:37.160Z,40.55
2022-11-15T19:11:10.307Z,39.95
2022-11-15T19:13:36.724Z,40.70
2022-11-15T19:16:04.030Z,39.70
2022-11-15T19:18:32.290Z,43.33
2022-11-15T19:21:14.615Z,40.90
2022-11-15T19:23:42.860Z,39.38
2022-11-15T19:26:15.338Z,38.20
2022-11-15T19:28:42.638Z,36.30
2022-11-15T19:31:12.654Z,36.33
2022-11-15T19:33:40.741Z,35.67
2022-11-15T19:36:16.943Z,38.97
2022-11-15T19:38:43.492Z,39.80
2022-11-15T19:41:12.116Z,40.47
2022-11-15T19:43:38.697Z,39.78
2022-11-15T19:46:06.808Z,42.25
2022-11-15T19:48:34.410Z,43.22
2022-11-15T19:51:02.607Z,42.75
2022-11-15T19:53:34.537Z,40.03
2022-11-15T19:56:06.544Z,41.92
2022-11-15T19:58:34.598Z,41.08
2022-11-15T20:01:03.000Z,43.25
2022-11-15T20:03:30.965Z,41.50
2022-11-15T20:06:09.131Z,41.42
2022-11-15T20:08:36.444Z,40.55
2022-11-15T20:11:04.557Z,43.50
2022-11-15T20:13:31.746Z,44.42
2022-11-15T20:15:58.660Z,43.78
2022-11-15T20:18:26.683Z,45.63
2022-11-15T20:20:54.635Z,45.05
2022-11-15T20:23:21.242Z,46.15
2022-11-15T20:25:48.183Z,44.72
2022-11-15T20:28:19.798Z,44.58
2022-11-15T20:30:47.557Z,44.42
2022-11-15T20:33:14.755Z,44.40
2022-11-15T20:35:41.313Z,42.05
2022-11-15T20:38:08.170Z,39.22
2022-11-15T20:40:34.861Z,39.67
2022-11-15T20:43:01.918Z,42.88
2022-11-15T20:45:28.403Z,41.47
2022-11-15T20:47:56.557Z,41.47
2022-11-15T20:50:41.535Z,40.45
2022-11-15T20:53:09.970Z,37.85
2022-11-15T20:55:47.664Z,38.65
2022-11-15T20:58:20.807Z,40.15
2022-11-15T21:00:48.010Z,39.58
2022-11-15T21:03:14.797Z,41.95
2022-11-15T21:05:42.962Z,40.80
2022-11-15T21:08:11.868Z,39.97
2022-11-15T21:10:59.154Z,44.35
2022-11-15T21:13:26.750Z,41.92
2022-11-15T21:15:56.946Z,46.40
2022-11-15T21:18:24.006Z,48.10
2022-11-15T21:20:53.239Z,48.95
2022-11-15T21:23:19.641Z,49.33
2022-11-15T21:25:50.679Z,50.20
2022-11-15T21:30:52.804Z,50.08
2022-11-15T21:33:19.453Z,56.42
2022-11-15T21:35:45.901Z,58.47
2022-11-15T21:38:12.320Z,57.38
2022-11-15T21:40:38.724Z,55.70
2022-11-15T21:43:05.112Z,56.40
2022-11-15T21:45:31.498Z,56.88
2022-11-15T21:47:57.981Z,57.97
2022-11-15T21:50:24.369Z,57.17
2022-11-15T21:52:50.786Z,59.95
2022-11-15T21:55:17.169Z,59.20
2022-11-15T21:57:43.787Z,60.95
2022-11-15T22:00:29.633Z,60.30
2022-11-15T22:02:56.039Z,56.45
2022-11-15T22:05:23.119Z,57.83
2022-11-15T22:07:49.716Z,56.72
2022-11-15T22:10:16.135Z,59.22
2022-11-15T22:12:42.542Z,58.30
2022-11-15T22:15:09.421Z,57.47
2022-11-15T22:17:54.450Z,57.63
2022-11-15T22:20:43.561Z,57.33
2022-11-15T22:23:07.246Z,56.50
2022-11-15T22:25:33.659Z,58.20
2022-11-15T22:28:00.066Z,57.92
2022-11-15T22:30:26.482Z,57.65
2022-11-15T22:32:52.883Z,58.17
2022-11-15T22:35:19.304Z,57.38
2022-11-15T22:37:45.744Z,55.92
2022-11-15T22:40:12.132Z,53.78
2022-11-15T22:42:38.498Z,57.63
2022-11-15T22:45:05.289Z,53.60
2022-11-15T22:47:31.689Z,57.03
2022-11-15T22:49:58.089Z,54.53
2022-11-15T22:52:24.486Z,55.50
2022-11-15T22:54:50.908Z,53.60
2022-11-15T22:57:17.370Z,54.72
2022-11-15T22:59:43.761Z,56.28
2022-11-15T23:02:10.162Z,54.30
2022-11-15T23:04:36.572Z,56.72
2022-11-15T23:07:02.991Z,53.65
2022-11-15T23:09:29.427Z,54.55
2022-11-15T23:12:14.407Z,53.53
2022-11-15T23:14:40.797Z,52.72
2022-11-15T23:17:07.401Z,50.97
2022-11-15T23:19:33.848Z,51.25
2022-11-15T23:22:19.066Z,50.55
2022-11-15T23:24:45.557Z,50.38
2022-11-15T23:27:15.195Z,53.78
2022-11-15T23:30:00.309Z,47.85
2022-11-15T23:32:45.465Z,47.58
2022-11-15T23:35:11.891Z,49.88
2022-11-15T23:37:38.346Z,48.55
2022-11-15T23:40:05.390Z,52.22
2022-11-15T23:42:31.845Z,49.35
2022-11-15T23:44:58.225Z,47.47
2022-11-15T23:47:24.811Z,48.60
2022-11-15T23:49:51.186Z,49.45
2022-11-15T23:52:17.594Z,53.47
2022-11-15T23:54:44.474Z,51.97
2022-11-15T23:57:12.337Z,52.22
2022-11-15T23:59:40.040Z,50.88
